Terminal Aerodrome Forecast
Issued by NWS Duluth, MN

Home | Current Version | Previous Version | Text Only | Print | Product List | Glossary On
Versions: 1 2 3 4 5 6 7 8 9 10 11 12 13 14 15 16 17 18 19 20 21 22
000
FTUS43 KDLH 161300 AAA
TAFINL
TAF AMD
KINL 161326Z 1613/1712 36014KT 5SM -SN OVC015
      TEMPO 1613/1616 1 1/2SM -SN
     FM161600 33011KT P6SM VCSH BKN020 OVC035
      TEMPO 1616/1620 SCT020 OVC035
     FM170100 33008KT P6SM VCSH OVC015=

USA.gov is the U.S. government's official web portal to all federal, state and local government web resources and services.